My webcam Meer informatie My webcam


Onweer radar Meer informatie blitzortung!


Regen radar Meer informatie rain snow radar


Bezoek ook deze websites:

Template documentation
and downloads

And another site

Leuven-Template Forum

support.leuven-template



Het weer levert geen direct gevaar op.    Er zijn geen waarschuwingen afgegeven.

METAR rapporten vliegvelden

   
EHVK - Volkel Rnlafb, Netherlands
Afstand tot: ZW 18 km
Gewijzigd: 08-04-2020 03:55
Bewolking  
Bewolking  
   Wind: NO 7.4 km/h
Wind: NO 7.4 km/h
Temperatuur: 9°C
Voelt als: 8°C
Dauwpunt: 6°C
Vochtigheid: 82%
Barometer: 1026 hPa
Bewolking: Bewolking
Zicht: meer dan 10 km
Bewolking: Bewolking 26000 ft
EHVK 080155Z AUTO 05004KT 9999 OVC260 09/06 Q1026 BLU
EDLV - Niederrhein, Germany
Afstand tot: ZO 25 km
Gewijzigd: 03-04-2020 15:20
Verouderd
Helder  
Helder  
   Wind: WNW 20.4 km/h
Wind: WNW 20.4 km/h
Temperatuur: 10°C
Voelt als: 7°C
Dauwpunt: 2°C
Vochtigheid: 58%
Barometer: 1016 hPa
Zicht: meer dan 10 km
Bewolking: Helder
EDLV 031320Z 30011KT 280V340 CAVOK 10/02 Q1016
EHDL - Deelen Rnlafb, Netherlands
Afstand tot: N 35 km
Gewijzigd: 08-04-2020 03:55
Bewolking  
Bewolking  
   Wind: Oosten 5.6 km/h
Wind: Oosten 5.6 km/h
Temperatuur: 10°C
Voelt als: 9°C
Dauwpunt: 5°C
Vochtigheid: 71%
Barometer: 1027 hPa
Bewolking: Bewolking
Zicht: meer dan 10 km
Bewolking: Bewolking 23000 ft
EHDL 080155Z AUTO 09003KT 9999 OVC230 10/05 Q1027 BLU
EHEH - Eindhoven Rnlafb, Netherlands
Afstand tot: ZW 48 km
Gewijzigd: 08-04-2020 03:55
Bewolking  
Bewolking  
   Wind: NO 7.4 km/h
Wind: NO 7.4 km/h
Temperatuur: 9°C
Voelt als: 8°C
Dauwpunt: 6°C
Vochtigheid: 82%
Barometer: 1026 hPa
Bewolking: Bewolking
Zicht: meer dan 10 km
Bewolking: Bewolking 27000 ft
EHEH 080155Z AUTO 04004KT 9999 OVC270 09/06 Q1026 BLU
EHGR - Gilze-Rijen Rnla, Netherlands
Afstand tot: WZW 70 km
Gewijzigd: 08-04-2020 03:55
Bewolking  
Bewolking  
   Wind: NO 5.6 km/h
Wind: NO 5.6 km/h
Temperatuur: 9°C
Voelt als: 8°C
Dauwpunt: 6°C
Vochtigheid: 82%
Barometer: 1026 hPa
Bewolking: Bewolking
Zicht: meer dan 10 km
Bewolking: Bewolking 31000 ft
EHGR 080155Z AUTO 05003KT 9999 OVC310 09/06 Q1026 BLU
EBBL - Kleine-Brogel(Ba, Belgium
Afstand tot: ZZW 71 km
Gewijzigd: 08-04-2020 03:55
Helder  
Helder  
   Wind: Kalm
Wind: Kalm
Temperatuur: 8°C
Dauwpunt: 7°C
Vochtigheid: 93%
Barometer: 1026 hPa
Bewolking: Helder
Zicht: 6 km
Bewolking: Helder
EBBL 080155Z AUTO 00000KT 6000 NCD 08/07 Q1026 WHT

Script ontwikkeld door  Saratoga-weather.org Aangepast voor de template door  Weerstation Leuven

U vindt ons ook hier:

Het Weer Aktueel

European Weather Network

WeatherCloud

Weather Underground

Benelux Weer Netwerk

AWEKAS

Apparatuur in gebruik:

Weerstation
Davis VP2

Weerprogramma
Meteobridge

Weercomputer
My Computer

Webleverancier
My provider

Davis VP2

Meteobridge

My Computer

My provider